sensor_id;sensor_type;location;lat;lon;timestamp;pressure;altitude;pressure_sealevel;temperature;humidity
47815;BME280;33579;50.058;18.130;2024-01-10T00:00:42;101030.81;;;-13.80;100.00
47815;BME280;33579;50.058;18.130;2024-01-10T00:01:44;101029.66;;;-13.89;100.00
47815;BME280;33579;50.058;18.130;2024-01-10T00:02:46;101028.88;;;-13.86;100.00
47815;BME280;33579;50.058;18.130;2024-01-10T00:03:47;101028.41;;;-13.77;100.00
47815;BME280;33579;50.058;18.130;2024-01-10T00:04:49;101020.78;;;-13.79;100.00
47815;BME280;33579;50.058;18.130;2024-01-10T00:05:51;101024.03;;;-13.81;100.00
47815;BME280;33579;50.058;18.130;2024-01-10T00:06:53;101017.91;;;-13.87;100.00
47815;BME280;33579;50.058;18.130;2024-01-10T00:07:54;101019.38;;;-13.92;100.00
47815;BME280;33579;50.058;18.130;2024-01-10T00:08:56;101020.84;;;-13.97;100.00
47815;BME280;33579;50.058;18.130;2024-01-10T00:09:58;101022.88;;;-14.09;100.00
47815;BME280;33579;50.058;18.130;2024-01-10T00:11:00;101014.41;;;-14.10;100.00
47815;BME280;33579;50.058;18.130;2024-01-10T00:12:02;101016.13;;;-14.09;100.00
47815;BME280;33579;50.058;18.130;2024-01-10T00:13:04;101018.53;;;-14.12;100.00
47815;BME280;33579;50.058;18.130;2024-01-10T00:14:06;101026.81;;;-14.16;100.00
47815;BME280;33579;50.058;18.130;2024-01-10T00:15:08;101020.81;;;-14.18;100.00
47815;BME280;33579;50.058;18.130;2024-01-10T00:16:13;101020.53;;;-14.24;100.00
47815;BME280;33579;50.058;18.130;2024-01-10T00:17:14;101021.34;;;-14.26;100.00
47815;BME280;33579;50.058;18.130;2024-01-10T00:18:16;101013.03;;;-14.23;100.00
47815;BME280;33579;50.058;18.130;2024-01-10T00:19:18;101022.13;;;-14.27;100.00
47815;BME280;33579;50.058;18.130;2024-01-10T00:20:20;101016.28;;;-14.26;100.00
47815;BME280;33579;50.058;18.130;2024-01-10T00:21:22;101011.63;;;-14.16;100.00
47815;BME280;33579;50.058;18.130;2024-01-10T00:22:24;101014.47;;;-14.08;100.00
47815;BME280;33579;50.058;18.130;2024-01-10T00:23:26;101018.06;;;-14.03;100.00
47815;BME280;33579;50.058;18.130;2024-01-10T00:24:28;101014.78;;;-14.01;100.00
47815;BME280;33579;50.058;18.130;2024-01-10T00:25:29;101019.84;;;-14.01;100.00
47815;BME280;33579;50.058;18.130;2024-01-10T00:26:31;101015.72;;;-13.99;100.00
47815;BME280;33579;50.058;18.130;2024-01-10T00:27:33;101013.31;;;-13.95;100.00
47815;BME280;33579;50.058;18.130;2024-01-10T00:28:35;101012.53;;;-13.94;100.00
47815;BME280;33579;50.058;18.130;2024-01-10T00:29:36;101006.59;;;-13.95;100.00
47815;BME280;33579;50.058;18.130;2024-01-10T00:30:39;101010.94;;;-13.92;100.00
47815;BME280;33579;50.058;18.130;2024-01-10T00:31:41;101002.66;;;-13.88;100.00
47815;BME280;33579;50.058;18.130;2024-01-10T00:32:43;101000.94;;;-13.89;100.00
47815;BME280;33579;50.058;18.130;2024-01-10T00:33:45;101006.88;;;-13.89;100.00
47815;BME280;33579;50.058;18.130;2024-01-10T00:34:46;101001.94;;;-13.86;100.00
47815;BME280;33579;50.058;18.130;2024-01-10T00:35:48;101000.25;;;-13.85;100.00
47815;BME280;33579;50.058;18.130;2024-01-10T00:36:50;101000.31;;;-13.84;100.00
47815;BME280;33579;50.058;18.130;2024-01-10T00:37:52;100999.00;;;-13.75;100.00
47815;BME280;33579;50.058;18.130;2024-01-10T00:38:54;101001.84;;;-13.67;100.00
47815;BME280;33579;50.058;18.130;2024-01-10T00:39:55;100999.09;;;-13.72;100.00
47815;BME280;33579;50.058;18.130;2024-01-10T00:40:57;100994.28;;;-13.87;100.00
47815;BME280;33579;50.058;18.130;2024-01-10T00:41:59;100998.81;;;-14.00;100.00
47815;BME280;33579;50.058;18.130;2024-01-10T00:43:01;100996.66;;;-14.12;100.00
47815;BME280;33579;50.058;18.130;2024-01-10T00:44:03;100992.59;;;-14.28;100.00
47815;BME280;33579;50.058;18.130;2024-01-10T00:45:06;100986.44;;;-14.33;100.00
47815;BME280;33579;50.058;18.130;2024-01-10T00:46:07;100996.25;;;-14.41;100.00
47815;BME280;33579;50.058;18.130;2024-01-10T00:47:10;100991.41;;;-14.56;100.00
47815;BME280;33579;50.058;18.130;2024-01-10T00:48:12;100987.84;;;-14.59;100.00
47815;BME280;33579;50.058;18.130;2024-01-10T00:49:14;100989.78;;;-14.53;100.00
47815;BME280;33579;50.058;18.130;2024-01-10T00:50:16;100987.47;;;-14.49;100.00
47815;BME280;33579;50.058;18.130;2024-01-10T00:51:18;100994.91;;;-14.52;100.00
47815;BME280;33579;50.058;18.130;2024-01-10T00:52:19;100987.91;;;-14.58;100.00
47815;BME280;33579;50.058;18.130;2024-01-10T00:53:21;100987.84;;;-14.59;100.00
47815;BME280;33579;50.058;18.130;2024-01-10T00:54:23;100992.19;;;-14.57;100.00
47815;BME280;33579;50.058;18.130;2024-01-10T00:55:25;100988.91;;;-14.54;100.00
47815;BME280;33579;50.058;18.130;2024-01-10T00:56:27;100994.97;;;-14.50;100.00
47815;BME280;33579;50.058;18.130;2024-01-10T00:57:29;100987.31;;;-14.52;100.00
47815;BME280;33579;50.058;18.130;2024-01-10T00:58:30;100998.72;;;-14.42;100.00
47815;BME280;33579;50.058;18.130;2024-01-10T00:59:32;100993.19;;;-14.33;100.00
47815;BME280;33579;50.058;18.130;2024-01-10T01:00:34;100994.31;;;-14.27;100.00
47815;BME280;33579;50.058;18.130;2024-01-10T01:01:36;100991.88;;;-14.25;100.00
47815;BME280;33579;50.058;18.130;2024-01-10T01:02:38;100995.44;;;-14.20;100.00
47815;BME280;33579;50.058;18.130;2024-01-10T01:03:39;100996.56;;;-14.13;100.00
47815;BME280;33579;50.058;18.130;2024-01-10T01:04:41;100993.72;;;-14.21;100.00
47815;BME280;33579;50.058;18.130;2024-01-10T01:05:44;100998.03;;;-14.38;100.00
47815;BME280;33579;50.058;18.130;2024-01-10T01:06:45;100991.13;;;-14.42;100.00
47815;BME280;33579;50.058;18.130;2024-01-10T01:07:47;100989.78;;;-14.53;100.00
47815;BME280;33579;50.058;18.130;2024-01-10T01:08:49;100996.44;;;-14.56;100.00
47815;BME280;33579;50.058;18.130;2024-01-10T01:09:51;100995.19;;;-14.46;100.00
47815;BME280;33579;50.058;18.130;2024-01-10T01:10:53;100991.94;;;-14.43;100.00
47815;BME280;33579;50.058;18.130;2024-01-10T01:11:55;100991.47;;;-14.34;100.00
47815;BME280;33579;50.058;18.130;2024-01-10T01:12:56;100989.97;;;-14.29;100.00
47815;BME280;33579;50.058;18.130;2024-01-10T01:13:58;100990.19;;;-14.24;100.00
47815;BME280;33579;50.058;18.130;2024-01-10T01:15:00;100989.66;;;-14.17;100.00
47815;BME280;33579;50.058;18.130;2024-01-10T01:16:02;100992.38;;;-14.13;100.00
47815;BME280;33579;50.058;18.130;2024-01-10T01:17:04;100993.50;;;-14.06;100.00
47815;BME280;33579;50.058;18.130;2024-01-10T01:18:06;100985.97;;;-14.04;100.00
47815;BME280;33579;50.058;18.130;2024-01-10T01:19:07;100987.56;;;-14.06;100.00
47815;BME280;33579;50.058;18.130;2024-01-10T01:20:09;100985.13;;;-14.05;100.00
47815;BME280;33579;50.058;18.130;2024-01-10T01:21:11;100997.09;;;-14.01;100.00
47815;BME280;33579;50.058;18.130;2024-01-10T01:22:13;100991.41;;;-13.95;100.00
47815;BME280;33579;50.058;18.130;2024-01-10T01:23:15;100992.22;;;-13.96;100.00
47815;BME280;33579;50.058;18.130;2024-01-10T01:24:30;100990.97;;;-14.06;100.00
47815;BME280;33579;50.058;18.130;2024-01-10T01:25:32;100991.63;;;-14.10;100.00
47815;BME280;33579;50.058;18.130;2024-01-10T01:26:33;100990.78;;;-14.10;100.00
47815;BME280;33579;50.058;18.130;2024-01-10T01:27:35;100990.22;;;-14.03;100.00
47815;BME280;33579;50.058;18.130;2024-01-10T01:28:37;100981.72;;;-14.05;100.00
47815;BME280;33579;50.058;18.130;2024-01-10T01:29:39;100990.03;;;-14.08;100.00
47815;BME280;33579;50.058;18.130;2024-01-10T01:30:40;100985.78;;;-14.09;100.00
47815;BME280;33579;50.058;18.130;2024-01-10T01:31:42;100987.50;;;-14.08;100.00
47815;BME280;33579;50.058;18.130;2024-01-10T01:32:44;100993.44;;;-14.07;100.00
47815;BME280;33579;50.058;18.130;2024-01-10T01:33:46;100990.03;;;-14.08;100.00
47815;BME280;33579;50.058;18.130;2024-01-10T01:34:48;100996.91;;;-14.05;100.00
47815;BME280;33579;50.058;18.130;2024-01-10T01:35:50;100989.25;;;-14.07;100.00
47815;BME280;33579;50.058;18.130;2024-01-10T01:36:51;100989.19;;;-14.08;100.00
47815;BME280;33579;50.058;18.130;2024-01-10T01:37:53;100987.34;;;-14.13;100.00
47815;BME280;33579;50.058;18.130;2024-01-10T01:38:55;100983.84;;;-14.15;100.00
47815;BME280;33579;50.058;18.130;2024-01-10T01:39:57;100993.25;;;-14.12;100.00
47815;BME280;33579;50.058;18.130;2024-01-10T01:40:59;100986.56;;;-14.10;100.00
47815;BME280;33579;50.058;18.130;2024-01-10T01:42:01;100991.78;;;-14.07;100.00
47815;BME280;33579;50.058;18.130;2024-01-10T01:43:18;100995.38;;;-14.02;100.00
47815;BME280;33579;50.058;18.130;2024-01-10T01:44:20;100996.28;;;-14.00;100.00
47815;BME280;33579;50.058;18.130;2024-01-10T01:45:22;101001.28;;;-14.01;100.00
47815;BME280;33579;50.058;18.130;2024-01-10T01:46:23;101002.06;;;-14.02;100.00
47815;BME280;33579;50.058;18.130;2024-01-10T01:47:26;100993.63;;;-14.03;100.00
47815;BME280;33579;50.058;18.130;2024-01-10T01:48:28;100992.09;;;-13.99;100.00
47815;BME280;33579;50.058;18.130;2024-01-10T01:49:30;100999.75;;;-13.98;100.00
47815;BME280;33579;50.058;18.130;2024-01-10T01:50:32;100993.84;;;-13.98;100.00
47815;BME280;33579;50.058;18.130;2024-01-10T01:51:36;100995.56;;;-13.97;100.00
47815;BME280;33579;50.058;18.130;2024-01-10T01:52:38;100996.47;;;-13.95;100.00
47815;BME280;33579;50.058;18.130;2024-01-10T01:53:41;100993.06;;;-13.95;100.00
47815;BME280;33579;50.058;18.130;2024-01-10T01:54:46;100990.50;;;-13.97;100.00
47815;BME280;33579;50.058;18.130;2024-01-10T01:55:49;100994.69;;;-13.98;100.00
47815;BME280;33579;50.058;18.130;2024-01-10T01:56:52;100996.38;;;-13.98;100.00
47815;BME280;33579;50.058;18.130;2024-01-10T01:57:54;100992.75;;;-14.03;100.00
47815;BME280;33579;50.058;18.130;2024-01-10T01:58:56;100995.25;;;-14.05;100.00
47815;BME280;33579;50.058;18.130;2024-01-10T01:59:58;100988.31;;;-14.09;100.00
47815;BME280;33579;50.058;18.130;2024-01-10T02:01:02;100991.50;;;-14.13;100.00
47815;BME280;33579;50.058;18.130;2024-01-10T02:02:04;100988.78;;;-14.18;100.00
47815;BME280;33579;50.058;18.130;2024-01-10T02:03:07;100992.84;;;-14.21;100.00
47815;BME280;33579;50.058;18.130;2024-01-10T02:04:09;100991.06;;;-14.24;100.00
47815;BME280;33579;50.058;18.130;2024-01-10T02:05:11;100991.88;;;-14.25;100.00
47815;BME280;33579;50.058;18.130;2024-01-10T02:06:13;100991.00;;;-14.26;100.00
47815;BME280;33579;50.058;18.130;2024-01-10T02:07:16;100999.44;;;-14.25;100.00
47815;BME280;33579;50.058;18.130;2024-01-10T02:08:17;100996.03;;;-14.26;100.00
47815;BME280;33579;50.058;18.130;2024-01-10T02:09:19;100998.31;;;-14.32;100.00
47815;BME280;33579;50.058;18.130;2024-01-10T02:10:21;100989.06;;;-14.31;100.00
47815;BME280;33579;50.058;18.130;2024-01-10T02:11:24;100992.09;;;-14.38;100.00
47815;BME280;33579;50.058;18.130;2024-01-10T02:12:26;100991.25;;;-14.39;100.00
47815;BME280;33579;50.058;18.130;2024-01-10T02:13:28;100990.34;;;-14.41;100.00
47815;BME280;33579;50.058;18.130;2024-01-10T02:14:31;100991.34;;;-14.37;100.00
47815;BME280;33579;50.058;18.130;2024-01-10T02:15:32;100990.66;;;-14.33;100.00
47815;BME280;33579;50.058;18.130;2024-01-10T02:16:34;100987.22;;;-14.35;100.00
47815;BME280;33579;50.058;18.130;2024-01-10T02:17:36;100987.69;;;-14.44;100.00
47815;BME280;33579;50.058;18.130;2024-01-10T02:18:38;100990.13;;;-14.46;100.00
47815;BME280;33579;50.058;18.130;2024-01-10T02:19:40;100995.97;;;-14.47;100.00
47815;BME280;33579;50.058;18.130;2024-01-10T02:20:45;100990.22;;;-14.44;100.00
47815;BME280;33579;50.058;18.130;2024-01-10T02:21:46;100989.53;;;-14.40;100.00
47815;BME280;33579;50.058;18.130;2024-01-10T02:22:48;100991.47;;;-14.34;100.00
47815;BME280;33579;50.058;18.130;2024-01-10T02:23:50;100988.22;;;-14.32;100.00
47815;BME280;33579;50.058;18.130;2024-01-10T02:24:53;100991.78;;;-14.27;100.00
47815;BME280;33579;50.058;18.130;2024-01-10T02:25:56;100992.72;;;-14.24;100.00
47815;BME280;33579;50.058;18.130;2024-01-10T02:26:58;100991.88;;;-14.25;100.00
47815;BME280;33579;50.058;18.130;2024-01-10T02:28:00;100994.56;;;-14.20;100.00
47815;BME280;33579;50.058;18.130;2024-01-10T02:29:01;100984.59;;;-14.17;100.00
47815;BME280;33579;50.058;18.130;2024-01-10T02:30:04;100987.13;;;-14.17;100.00
47815;BME280;33579;50.058;18.130;2024-01-10T02:31:06;100987.19;;;-14.16;100.00
47815;BME280;33579;50.058;18.130;2024-01-10T02:32:08;100981.50;;;-14.10;100.00
47815;BME280;33579;50.058;18.130;2024-01-10T02:33:10;100983.19;;;-14.10;100.00
47815;BME280;33579;50.058;18.130;2024-01-10T02:34:12;100990.72;;;-14.12;100.00
47815;BME280;33579;50.058;18.130;2024-01-10T02:35:14;100989.06;;;-14.12;100.00
47815;BME280;33579;50.058;18.130;2024-01-10T02:36:16;100984.94;;;-14.09;100.00
47815;BME280;33579;50.058;18.130;2024-01-10T02:37:18;100982.31;;;-14.11;100.00
47815;BME280;33579;50.058;18.130;2024-01-10T02:38:20;100976.34;;;-14.13;100.00
47815;BME280;33579;50.058;18.130;2024-01-10T02:39:22;100981.50;;;-14.10;100.00
47815;BME280;33579;50.058;18.130;2024-01-10T02:40:24;100984.13;;;-14.08;100.00
47815;BME280;33579;50.058;18.130;2024-01-10T02:41:26;100982.31;;;-14.11;100.00
47815;BME280;33579;50.058;18.130;2024-01-10T02:42:28;100980.41;;;-14.17;100.00
47815;BME280;33579;50.058;18.130;2024-01-10T02:43:29;100976.25;;;-14.15;100.00
47815;BME280;33579;50.058;18.130;2024-01-10T02:44:31;100976.22;;;-14.16;100.00
47815;BME280;33579;50.058;18.130;2024-01-10T02:45:33;100983.72;;;-14.18;100.00
47815;BME280;33579;50.058;18.130;2024-01-10T02:46:35;100973.56;;;-14.19;100.00
47815;BME280;33579;50.058;18.130;2024-01-10T02:47:36;100977.06;;;-14.16;100.00
47815;BME280;33579;50.058;18.130;2024-01-10T02:48:38;100973.59;;;-14.18;100.00
47815;BME280;33579;50.058;18.130;2024-01-10T02:49:41;100981.00;;;-14.22;100.00
47815;BME280;33579;50.058;18.130;2024-01-10T02:50:43;100977.47;;;-14.26;100.00
47815;BME280;33579;50.058;18.130;2024-01-10T02:51:45;100980.16;;;-14.23;100.00
47815;BME280;33579;50.058;18.130;2024-01-10T02:52:46;100979.47;;;-14.19;100.00
47815;BME280;33579;50.058;18.130;2024-01-10T02:53:48;100977.53;;;-14.24;100.00
47815;BME280;33579;50.058;18.130;2024-01-10T02:54:50;100981.78;;;-14.23;100.00
47815;BME280;33579;50.058;18.130;2024-01-10T02:55:52;100982.59;;;-14.24;100.00
47815;BME280;33579;50.058;18.130;2024-01-10T02:56:53;100972.59;;;-14.21;100.00
47815;BME280;33579;50.058;18.130;2024-01-10T02:57:55;100979.53;;;-14.17;100.00
47815;BME280;33579;50.058;18.130;2024-01-10T02:58:57;100980.19;;;-14.21;100.00
47815;BME280;33579;50.058;18.130;2024-01-10T02:59:59;100977.28;;;-14.31;100.00
47815;BME280;33579;50.058;18.130;2024-01-10T03:01:00;100974.63;;;-14.34;100.00
47815;BME280;33579;50.058;18.130;2024-01-10T03:02:02;100972.28;;;-14.29;100.00
47815;BME280;33579;50.058;18.130;2024-01-10T03:03:04;100974.00;;;-14.28;100.00
47815;BME280;33579;50.058;18.130;2024-01-10T03:04:06;100967.19;;;-14.31;100.00
47815;BME280;33579;50.058;18.130;2024-01-10T03:05:08;100969.03;;;-14.27;100.00
47815;BME280;33579;50.058;18.130;2024-01-10T03:06:10;100969.75;;;-14.29;100.00
47815;BME280;33579;50.058;18.130;2024-01-10T03:07:12;100963.91;;;-14.28;100.00
47815;BME280;33579;50.058;18.130;2024-01-10T03:08:14;100968.59;;;-14.37;100.00
47815;BME280;33579;50.058;18.130;2024-01-10T03:09:15;100964.50;;;-14.34;100.00
47815;BME280;33579;50.058;18.130;2024-01-10T03:10:17;100969.75;;;-14.29;100.00
47815;BME280;33579;50.058;18.130;2024-01-10T03:11:19;100967.19;;;-14.31;100.00
47815;BME280;33579;50.058;18.130;2024-01-10T03:12:21;100968.84;;;-14.31;100.00
47815;BME280;33579;50.058;18.130;2024-01-10T03:13:22;100972.16;;;-14.32;100.00
47815;BME280;33579;50.058;18.130;2024-01-10T03:14:24;100968.75;;;-14.33;100.00
47815;BME280;33579;50.058;18.130;2024-01-10T03:15:26;100972.25;;;-14.31;100.00
47815;BME280;33579;50.058;18.130;2024-01-10T03:16:28;100971.44;;;-14.30;100.00
47815;BME280;33579;50.058;18.130;2024-01-10T03:17:30;100973.22;;;-14.27;100.00
47815;BME280;33579;50.058;18.130;2024-01-10T03:18:32;100969.88;;;-14.26;100.00
47815;BME280;33579;50.058;18.130;2024-01-10T03:19:33;100967.34;;;-14.26;100.00
47815;BME280;33579;50.058;18.130;2024-01-10T03:20:35;100969.88;;;-14.26;100.00
47815;BME280;33579;50.058;18.130;2024-01-10T03:21:38;100961.63;;;-14.22;100.00
47815;BME280;33579;50.058;18.130;2024-01-10T03:22:39;100963.25;;;-14.24;100.00
47815;BME280;33579;50.058;18.130;2024-01-10T03:23:41;100960.63;;;-14.26;100.00
47815;BME280;33579;50.058;18.130;2024-01-10T03:24:43;100967.34;;;-14.26;100.00
47815;BME280;33579;50.058;18.130;2024-01-10T03:25:45;100968.22;;;-14.26;100.00
47815;BME280;33579;50.058;18.130;2024-01-10T03:26:47;100966.75;;;-14.20;100.00
47815;BME280;33579;50.058;18.130;2024-01-10T03:27:48;100961.88;;;-14.16;100.00
47815;BME280;33579;50.058;18.130;2024-01-10T03:28:50;100966.28;;;-14.12;100.00
47815;BME280;33579;50.058;18.130;2024-01-10T03:29:52;100958.63;;;-14.13;100.00
47815;BME280;33579;50.058;18.130;2024-01-10T03:30:54;100961.97;;;-14.14;100.00
47815;BME280;33579;50.058;18.130;2024-01-10T03:31:56;100962.81;;;-14.14;100.00
47815;BME280;33579;50.058;18.130;2024-01-10T03:32:58;100953.34;;;-14.19;100.00
47815;BME280;33579;50.058;18.130;2024-01-10T03:34:00;100958.38;;;-14.19;100.00
47815;BME280;33579;50.058;18.130;2024-01-10T03:35:02;100953.34;;;-14.19;100.00
47815;BME280;33579;50.058;18.130;2024-01-10T03:36:05;100950.72;;;-14.21;100.00
47815;BME280;33579;50.058;18.130;2024-01-10T03:37:07;100954.66;;;-14.28;100.00
47815;BME280;33579;50.058;18.130;2024-01-10T03:38:09;100951.13;;;-14.31;100.00
47815;BME280;33579;50.058;18.130;2024-01-10T03:39:10;100948.81;;;-14.27;100.00
47815;BME280;33579;50.058;18.130;2024-01-10T03:40:12;100952.19;;;-14.26;100.00
47815;BME280;33579;50.058;18.130;2024-01-10T03:41:15;100956.47;;;-14.25;100.00
47815;BME280;33579;50.058;18.130;2024-01-10T03:42:17;100958.13;;;-14.26;100.00
47815;BME280;33579;50.058;18.130;2024-01-10T03:43:19;100958.84;;;-14.28;100.00
47815;BME280;33579;50.058;18.130;2024-01-10T03:44:21;100957.19;;;-14.28;100.00
47815;BME280;33579;50.058;18.130;2024-01-10T03:45:23;100954.53;;;-14.31;100.00
47815;BME280;33579;50.058;18.130;2024-01-10T03:46:25;100958.03;;;-14.27;100.00
47815;BME280;33579;50.058;18.130;2024-01-10T03:47:26;100952.13;;;-14.28;100.00
47815;BME280;33579;50.058;18.130;2024-01-10T03:48:29;100952.13;;;-14.28;100.00
47815;BME280;33579;50.058;18.130;2024-01-10T03:49:30;100959.59;;;-14.31;100.00
47815;BME280;33579;50.058;18.130;2024-01-10T03:50:32;100955.13;;;-14.36;100.00
47815;BME280;33579;50.058;18.130;2024-01-10T03:51:34;100954.38;;;-14.34;100.00
47815;BME280;33579;50.058;18.130;2024-01-10T03:52:36;100955.34;;;-14.32;100.00
47815;BME280;33579;50.058;18.130;2024-01-10T03:53:37;100954.59;;;-14.29;100.00
47815;BME280;33579;50.058;18.130;2024-01-10T03:54:39;100957.09;;;-14.29;100.00
47815;BME280;33579;50.058;18.130;2024-01-10T03:55:41;100952.94;;;-14.29;100.00
47815;BME280;33579;50.058;18.130;2024-01-10T03:56:43;100955.47;;;-14.29;100.00
47815;BME280;33579;50.058;18.130;2024-01-10T03:57:45;100957.09;;;-14.29;100.00
47815;BME280;33579;50.058;18.130;2024-01-10T03:58:47;100950.41;;;-14.29;100.00
47815;BME280;33579;50.058;18.130;2024-01-10T03:59:49;100951.31;;;-14.27;100.00
47815;BME280;33579;50.058;18.130;2024-01-10T04:00:50;100950.41;;;-14.29;100.00
47815;BME280;33579;50.058;18.130;2024-01-10T04:01:52;100945.38;;;-14.27;100.00
47815;BME280;33579;50.058;18.130;2024-01-10T04:02:54;100943.94;;;-14.22;100.00
47815;BME280;33579;50.058;18.130;2024-01-10T04:03:56;100943.13;;;-14.21;100.00
47815;BME280;33579;50.058;18.130;2024-01-10T04:04:58;100944.78;;;-14.21;100.00
47815;BME280;33579;50.058;18.130;2024-01-10T04:06:01;100951.53;;;-14.22;100.00
47815;BME280;33579;50.058;18.130;2024-01-10T04:07:03;100950.28;;;-14.32;100.00
47815;BME280;33579;50.058;18.130;2024-01-10T04:08:05;100945.75;;;-14.39;100.00
47815;BME280;33579;50.058;18.130;2024-01-10T04:09:07;100947.41;;;-14.40;100.00
47815;BME280;33579;50.058;18.130;2024-01-10T04:10:10;100946.06;;;-14.51;100.00
47815;BME280;33579;50.058;18.130;2024-01-10T04:11:12;100939.25;;;-14.53;100.00
47815;BME280;33579;50.058;18.130;2024-01-10T04:12:14;100943.50;;;-14.52;100.00
47815;BME280;33579;50.058;18.130;2024-01-10T04:13:16;100948.69;;;-14.49;100.00
47815;BME280;33579;50.058;18.130;2024-01-10T04:14:17;100950.59;;;-14.44;100.00
47815;BME280;33579;50.058;18.130;2024-01-10T04:15:20;100950.00;;;-14.38;100.00
47815;BME280;33579;50.058;18.130;2024-01-10T04:16:21;100949.75;;;-14.44;100.00
47815;BME280;33579;50.058;18.130;2024-01-10T04:17:23;100950.88;;;-14.37;100.00
47815;BME280;33579;50.058;18.130;2024-01-10T04:18:25;100945.22;;;-14.32;100.00
47815;BME280;33579;50.058;18.130;2024-01-10T04:19:27;100943.41;;;-14.34;100.00
47815;BME280;33579;50.058;18.130;2024-01-10T04:20:29;100945.03;;;-14.36;100.00
47815;BME280;33579;50.058;18.130;2024-01-10T04:21:31;100942.31;;;-14.41;100.00
47815;BME280;33579;50.058;18.130;2024-01-10T04:22:33;100947.94;;;-14.47;100.00
47815;BME280;33579;50.058;18.130;2024-01-10T04:23:35;100946.16;;;-14.49;100.00
47815;BME280;33579;50.058;18.130;2024-01-10T04:24:37;100943.63;;;-14.49;100.00
47815;BME280;33579;50.058;18.130;2024-01-10T04:25:39;100948.16;;;-14.42;100.00
47815;BME280;33579;50.058;18.130;2024-01-10T04:26:41;100945.75;;;-14.39;100.00
47815;BME280;33579;50.058;18.130;2024-01-10T04:27:42;100945.94;;;-14.34;100.00
47815;BME280;33579;50.058;18.130;2024-01-10T04:28:44;100940.91;;;-14.34;100.00
47815;BME280;33579;50.058;18.130;2024-01-10T04:29:46;100943.41;;;-14.34;100.00
47815;BME280;33579;50.058;18.130;2024-01-10T04:30:48;100948.00;;;-14.26;100.00
47815;BME280;33579;50.058;18.130;2024-01-10T04:31:50;100948.06;;;-14.24;100.00
47815;BME280;33579;50.058;18.130;2024-01-10T04:32:52;100942.81;;;-14.29;100.00
47815;BME280;33579;50.058;18.130;2024-01-10T04:33:54;100947.91;;;-14.27;100.00
47815;BME280;33579;50.058;18.130;2024-01-10T04:34:55;100950.31;;;-14.30;100.00
47815;BME280;33579;50.058;18.130;2024-01-10T04:35:57;100947.34;;;-14.41;100.00
47815;BME280;33579;50.058;18.130;2024-01-10T04:36:59;100948.47;;;-14.54;100.00
47815;BME280;33579;50.058;18.130;2024-01-10T04:38:01;100945.94;;;-14.54;100.00
47815;BME280;33579;50.058;18.130;2024-01-10T04:39:03;100947.63;;;-14.55;100.00
47815;BME280;33579;50.058;18.130;2024-01-10T04:40:05;100942.38;;;-14.59;100.00
47815;BME280;33579;50.058;18.130;2024-01-10T04:41:09;100942.50;;;-14.56;100.00
47815;BME280;33579;50.058;18.130;2024-01-10T04:42:12;100950.19;;;-14.53;100.00
47815;BME280;33579;50.058;18.130;2024-01-10T04:43:14;100943.53;;;-14.51;100.00
47815;BME280;33579;50.058;18.130;2024-01-10T04:44:15;100943.09;;;-14.62;100.00
47815;BME280;33579;50.058;18.130;2024-01-10T04:45:17;100941.03;;;-14.71;100.00
47815;BME280;33579;50.058;18.130;2024-01-10T04:46:19;100940.13;;;-14.73;100.00
47815;BME280;33579;50.058;18.130;2024-01-10T04:47:21;100940.78;;;-14.77;100.00
47815;BME280;33579;50.058;18.130;2024-01-10T04:48:23;100939.97;;;-14.76;100.00
47815;BME280;33579;50.058;18.130;2024-01-10T04:49:25;100940.66;;;-14.80;100.00
47815;BME280;33579;50.058;18.130;2024-01-10T04:50:26;100938.00;;;-14.83;100.00
47815;BME280;33579;50.058;18.130;2024-01-10T04:51:28;100941.78;;;-14.93;100.00
47815;BME280;33579;50.058;18.130;2024-01-10T04:52:30;100938.13;;;-15.00;100.00
47815;BME280;33579;50.058;18.130;2024-01-10T04:53:32;100935.44;;;-15.03;100.00
47815;BME280;33579;50.058;18.130;2024-01-10T04:54:34;100941.22;;;-15.05;100.00
47815;BME280;33579;50.058;18.130;2024-01-10T04:55:35;100935.22;;;-15.07;100.00
47815;BME280;33579;50.058;18.130;2024-01-10T04:56:37;100934.03;;;-15.16;100.00
47815;BME280;33579;50.058;18.130;2024-01-10T04:57:39;100945.19;;;-15.11;100.00
47815;BME280;33579;50.058;18.130;2024-01-10T04:58:41;100941.41;;;-15.01;100.00
47815;BME280;33579;50.058;18.130;2024-01-10T04:59:42;100936.91;;;-14.88;100.00
47815;BME280;33579;50.058;18.130;2024-01-10T05:00:44;100939.81;;;-14.80;100.00
47815;BME280;33579;50.058;18.130;2024-01-10T05:01:46;100940.94;;;-14.74;100.00
47815;BME280;33579;50.058;18.130;2024-01-10T05:02:48;100942.03;;;-14.67;100.00
47815;BME280;33579;50.058;18.130;2024-01-10T05:03:52;100936.03;;;-14.69;100.00
47815;BME280;33579;50.058;18.130;2024-01-10T05:04:54;100937.44;;;-14.76;100.00
47815;BME280;33579;50.058;18.130;2024-01-10T05:05:56;100934.47;;;-14.87;100.00
47815;BME280;33579;50.058;18.130;2024-01-10T05:06:58;100935.19;;;-14.89;100.00
47815;BME280;33579;50.058;18.130;2024-01-10T05:08:00;100937.56;;;-14.92;100.00
47815;BME280;33579;50.058;18.130;2024-01-10T05:09:01;100938.03;;;-15.01;100.00
47815;BME280;33579;50.058;18.130;2024-01-10T05:10:04;100942.41;;;-14.97;100.00
47815;BME280;33579;50.058;18.130;2024-01-10T05:11:06;100940.97;;;-14.92;100.00
47815;BME280;33579;50.058;18.130;2024-01-10T05:12:08;100945.25;;;-14.91;100.00